createdAt,value
2018-07-26T00:01:02.888Z,20.27
2018-07-26T00:03:34.101Z,22.17
2018-07-26T00:06:04.980Z,20.27
2018-07-26T00:08:35.981Z,20.47
2018-07-26T00:11:07.262Z,19.07
2018-07-26T00:13:38.385Z,20.43
2018-07-26T00:16:09.125Z,20.50
2018-07-26T00:18:39.998Z,19.50
2018-07-26T00:21:10.461Z,19.43
2018-07-26T00:23:41.054Z,20.23
2018-07-26T00:26:11.977Z,20.50
2018-07-26T00:28:42.757Z,20.17
2018-07-26T00:31:13.657Z,19.83
2018-07-26T00:33:44.968Z,19.67
2018-07-26T00:36:15.429Z,21.33
2018-07-26T00:38:45.956Z,22.07
2018-07-26T00:41:16.883Z,19.83
2018-07-26T00:43:47.466Z,20.60
2018-07-26T00:46:17.981Z,21.03
2018-07-26T00:48:48.817Z,20.47
2018-07-26T00:51:19.343Z,22.53
2018-07-26T00:53:49.925Z,25.17
2018-07-26T00:56:20.832Z,23.87
2018-07-26T00:58:51.306Z,25.87
2018-07-26T01:01:21.762Z,24.53
2018-07-26T01:03:53.031Z,24.23
2018-07-26T01:06:23.601Z,23.57
2018-07-26T01:08:55.106Z,22.33
2018-07-26T01:11:26.058Z,22.23
2018-07-26T01:13:56.757Z,20.87
2018-07-26T01:16:27.241Z,20.37
2018-07-26T01:18:58.496Z,22.23
2018-07-26T01:21:28.991Z,22.03
2018-07-26T01:23:59.758Z,21.87
2018-07-26T01:26:30.630Z,20.70
2018-07-26T01:29:01.248Z,20.37
2018-07-26T01:31:32.113Z,19.70
2018-07-26T01:34:03.217Z,19.07
2018-07-26T01:36:33.684Z,17.87
2018-07-26T01:39:05.403Z,19.40
2018-07-26T01:41:35.853Z,18.93
2018-07-26T01:44:19.595Z,17.73
2018-07-26T01:46:50.123Z,16.90
2018-07-26T01:49:20.125Z,15.50
2018-07-26T01:51:50.518Z,15.33
2018-07-26T01:54:21.025Z,14.63
2018-07-26T01:56:51.949Z,14.33
2018-07-26T01:59:22.631Z,14.00
2018-07-26T02:01:53.392Z,14.03
2018-07-26T02:04:24.645Z,13.53
2018-07-26T02:06:54.925Z,13.73
2018-07-26T02:09:25.577Z,14.23
2018-07-26T02:11:56.505Z,13.83
2018-07-26T02:14:31.892Z,14.10
2018-07-26T02:17:02.401Z,14.23
2018-07-26T02:19:32.987Z,14.13
2018-07-26T02:22:04.091Z,14.90
2018-07-26T02:24:34.737Z,14.03
2018-07-26T02:27:05.291Z,14.30
2018-07-26T02:29:35.893Z,15.13
2018-07-26T02:32:06.638Z,14.43
2018-07-26T02:34:37.335Z,15.17
2018-07-26T02:37:08.426Z,14.30
2018-07-26T02:39:39.134Z,15.60
2018-07-26T02:42:09.717Z,15.10
2018-07-26T02:44:40.591Z,15.87
2018-07-26T02:47:11.358Z,15.43
2018-07-26T02:49:42.082Z,16.97
2018-07-26T02:52:13.035Z,16.93
2018-07-26T02:54:44.161Z,20.13
2018-07-26T02:57:14.742Z,17.83
2018-07-26T02:59:45.594Z,19.80
2018-07-26T03:02:16.162Z,19.70
2018-07-26T03:04:47.254Z,19.20
2018-07-26T03:07:17.978Z,18.87
2018-07-26T03:09:48.849Z,22.30
2018-07-26T03:12:19.774Z,19.83
2018-07-26T03:14:50.618Z,18.50
2018-07-26T03:17:21.154Z,18.33
2018-07-26T03:19:52.236Z,17.63
2018-07-26T03:22:22.785Z,17.93
2018-07-26T03:24:53.330Z,18.13
2018-07-26T03:27:24.298Z,18.73
2018-07-26T03:29:55.042Z,18.77
2018-07-26T03:32:25.576Z,20.47
2018-07-26T03:34:56.930Z,21.27
2018-07-26T03:37:28.010Z,22.77
2018-07-26T03:39:58.621Z,21.43
2018-07-26T03:42:29.714Z,22.37
2018-07-26T03:45:00.301Z,21.33
2018-07-26T03:47:30.855Z,20.97
2018-07-26T03:50:01.749Z,20.67
2018-07-26T03:52:32.421Z,20.70
2018-07-26T03:55:02.472Z,22.47
2018-07-26T03:57:33.549Z,19.90
2018-07-26T04:00:04.649Z,18.97
2018-07-26T04:02:35.462Z,19.07
2018-07-26T04:05:06.121Z,18.53
2018-07-26T04:07:36.497Z,21.93
2018-07-26T04:10:07.609Z,19.63
2018-07-26T04:12:38.130Z,18.43
2018-07-26T04:15:09.074Z,20.43
2018-07-26T04:17:39.696Z,18.50
2018-07-26T04:20:10.594Z,20.13
2018-07-26T04:22:41.545Z,18.07
2018-07-26T04:25:12.354Z,19.07
2018-07-26T04:27:42.829Z,18.77
2018-07-26T04:30:13.341Z,17.97
2018-07-26T04:32:43.861Z,17.10
2018-07-26T04:35:14.694Z,17.13
2018-07-26T04:37:45.161Z,16.53
2018-07-26T04:40:16.154Z,16.13
2018-07-26T04:42:47.285Z,14.90
2018-07-26T04:45:18.123Z,15.10
2018-07-26T04:47:48.617Z,14.03
2018-07-26T04:50:19.838Z,16.60
2018-07-26T04:52:50.512Z,12.87
2018-07-26T04:55:21.206Z,14.43
2018-07-26T04:57:52.274Z,14.27
2018-07-26T05:00:22.952Z,13.53
2018-07-26T05:02:53.500Z,16.33
2018-07-26T05:05:24.664Z,11.73
2018-07-26T05:07:55.162Z,12.57
2018-07-26T05:10:25.422Z,15.20
2018-07-26T05:12:56.152Z,12.10
2018-07-26T05:15:26.958Z,14.50
2018-07-26T05:17:57.609Z,13.80
2018-07-26T05:20:28.801Z,13.13
2018-07-26T05:22:59.305Z,10.27
2018-07-26T05:25:30.411Z,11.57
2018-07-26T05:28:01.338Z,10.17
2018-07-26T05:30:32.474Z,12.77
2018-07-26T05:33:02.994Z,13.80
2018-07-26T05:35:34.150Z,10.17
2018-07-26T05:38:04.759Z,11.53
2018-07-26T05:40:35.445Z,9.37
2018-07-26T05:43:06.759Z,9.83
2018-07-26T05:45:37.673Z,11.30
2018-07-26T05:48:08.329Z,10.70
2018-07-26T05:50:39.362Z,11.90
2018-07-26T05:53:09.943Z,10.03
2018-07-26T05:55:40.877Z,8.17
2018-07-26T05:58:11.749Z,8.87
2018-07-26T06:00:42.578Z,6.40
2018-07-26T06:03:13.281Z,12.20
2018-07-26T06:05:45.120Z,9.40
2018-07-26T06:08:15.766Z,10.30
2018-07-26T06:10:46.877Z,10.10
2018-07-26T06:13:17.410Z,7.63
2018-07-26T06:15:48.201Z,12.50
2018-07-26T06:18:20.155Z,8.20
2018-07-26T06:20:50.866Z,8.27
2018-07-26T06:23:23.353Z,6.93
2018-07-26T06:25:54.185Z,8.50
2018-07-26T06:28:25.109Z,13.53
2018-07-26T06:30:57.913Z,10.03
2018-07-26T06:33:30.476Z,8.63
2018-07-26T06:36:04.213Z,12.17
2018-07-26T06:38:37.395Z,7.60
2018-07-26T06:45:46.605Z,8.80
2018-07-26T06:48:18.182Z,8.90
2018-07-26T06:50:49.034Z,8.83
2018-07-26T06:53:26.024Z,8.00
2018-07-26T06:55:59.804Z,8.77
2018-07-26T06:58:31.594Z,11.70
2018-07-26T07:01:02.233Z,19.50
2018-07-26T07:03:32.815Z,10.70
2018-07-26T07:06:04.618Z,13.70
2018-07-26T07:08:35.511Z,10.17
2018-07-26T07:11:07.025Z,8.67
2018-07-26T07:13:37.669Z,8.03
2018-07-26T07:16:08.293Z,6.93
2018-07-26T07:18:38.898Z,5.37
2018-07-26T07:21:09.825Z,4.60
2018-07-26T07:23:40.267Z,8.53
2018-07-26T07:26:10.703Z,7.30
2018-07-26T07:28:41.426Z,5.00
2018-07-26T07:31:12.529Z,5.87
2018-07-26T07:33:43.465Z,6.27
2018-07-26T07:36:14.095Z,6.47
2018-07-26T07:38:45.309Z,5.87
2018-07-26T07:41:16.238Z,6.60
2018-07-26T07:43:48.308Z,5.27
2018-07-26T07:46:18.789Z,3.27
2018-07-26T07:48:50.678Z,4.63
2018-07-26T07:51:21.665Z,3.10
2018-07-26T07:53:52.552Z,5.17
2018-07-26T07:56:23.094Z,2.83
2018-07-26T07:58:53.695Z,3.60
2018-07-26T08:01:24.973Z,4.57
2018-07-26T08:03:55.472Z,2.90
2018-07-26T08:06:27.289Z,3.83
2018-07-26T08:08:57.903Z,8.43
2018-07-26T08:11:28.398Z,4.63
2018-07-26T08:13:59.215Z,3.00
2018-07-26T08:16:29.727Z,4.80
2018-07-26T08:19:01.654Z,3.23
2018-07-26T08:21:32.236Z,2.80
2018-07-26T08:24:04.164Z,6.90
2018-07-26T08:26:35.113Z,5.57
2018-07-26T08:29:05.849Z,5.57
2018-07-26T08:31:36.346Z,2.80
2018-07-26T08:34:07.473Z,5.43
2018-07-26T08:36:39.383Z,4.23
2018-07-26T08:39:12.224Z,4.67
2018-07-26T08:41:43.133Z,4.40
2018-07-26T08:44:23.001Z,3.37
2018-07-26T08:46:53.713Z,4.13
2018-07-26T08:49:24.493Z,6.07
2018-07-26T08:51:55.179Z,4.40
2018-07-26T08:54:26.361Z,6.73
2018-07-26T08:56:57.129Z,6.80
2018-07-26T08:59:28.114Z,6.40
2018-07-26T09:01:58.711Z,2.70
2018-07-26T09:04:29.827Z,3.17
2018-07-26T09:07:00.322Z,2.87
2018-07-26T09:09:30.812Z,3.67
2018-07-26T09:12:01.663Z,7.80
2018-07-26T09:14:32.974Z,2.73
2018-07-26T09:17:03.490Z,4.13
2018-07-26T09:19:34.807Z,3.43
2018-07-26T09:22:05.497Z,10.10
2018-07-26T09:24:35.923Z,3.90
2018-07-26T09:27:06.394Z,4.00
2018-07-26T09:29:36.930Z,6.30
2018-07-26T09:32:08.065Z,3.17
2018-07-26T09:34:38.573Z,3.23
2018-07-26T09:37:09.072Z,5.40
2018-07-26T09:39:40.003Z,4.20
2018-07-26T09:42:10.549Z,5.03
2018-07-26T09:44:41.010Z,4.60
2018-07-26T09:47:11.545Z,4.27
2018-07-26T09:49:42.700Z,3.10
2018-07-26T09:52:13.402Z,7.80
2018-07-26T09:54:44.322Z,5.40
2018-07-26T09:57:15.253Z,5.83
2018-07-26T09:59:45.934Z,4.83
2018-07-26T10:02:17.026Z,5.27
2018-07-26T10:04:47.849Z,3.47
2018-07-26T10:07:18.725Z,3.23
2018-07-26T10:09:50.340Z,4.80
2018-07-26T10:12:20.907Z,4.03
2018-07-26T10:14:51.309Z,4.07
2018-07-26T10:17:21.850Z,3.13
2018-07-26T10:19:54.590Z,3.07
2018-07-26T10:22:25.639Z,4.10
2018-07-26T10:24:56.329Z,3.80
2018-07-26T10:27:27.016Z,3.70
2018-07-26T10:29:58.288Z,3.27
2018-07-26T10:32:29.136Z,3.73
2018-07-26T10:34:59.630Z,3.33
2018-07-26T10:37:31.335Z,7.47
2018-07-26T10:40:02.157Z,4.30
2018-07-26T10:42:32.352Z,5.67
2018-07-26T10:45:02.974Z,3.83
2018-07-26T10:47:33.548Z,3.37
2018-07-26T10:50:05.872Z,5.40
2018-07-26T10:52:36.392Z,4.27
2018-07-26T10:55:07.922Z,5.73
2018-07-26T10:57:39.693Z,2.70
2018-07-26T11:00:10.507Z,6.70
2018-07-26T11:02:41.007Z,4.17
2018-07-26T11:05:11.729Z,6.57
2018-07-26T11:07:42.746Z,8.43
2018-07-26T11:10:14.101Z,4.63
2018-07-26T11:12:44.926Z,4.00
2018-07-26T11:15:21.860Z,8.20
2018-07-26T11:17:52.237Z,6.20
2018-07-26T11:20:22.803Z,3.47
2018-07-26T11:22:53.839Z,3.97
2018-07-26T11:25:25.005Z,4.57
2018-07-26T11:27:56.189Z,4.33
2018-07-26T11:30:27.392Z,7.50
2018-07-26T11:32:58.262Z,5.53
2018-07-26T11:35:29.073Z,3.17
2018-07-26T11:38:00.489Z,2.90
2018-07-26T11:40:32.538Z,7.17
2018-07-26T11:43:03.329Z,3.07
2018-07-26T11:45:34.618Z,4.77
2018-07-26T11:48:05.198Z,2.93
2018-07-26T11:54:01.105Z,4.80
2018-07-26T11:56:31.745Z,7.37
2018-07-26T11:59:02.498Z,3.30
2018-07-26T12:01:33.793Z,4.67
2018-07-26T12:04:04.471Z,3.77
2018-07-26T12:06:35.385Z,3.50
2018-07-26T12:09:09.269Z,6.40
2018-07-26T12:11:53.388Z,6.77
2018-07-26T12:14:29.441Z,5.95
2018-07-26T12:17:02.036Z,2.90
2018-07-26T12:19:36.184Z,3.30
2018-07-26T12:22:09.082Z,4.30
2018-07-26T12:24:39.795Z,5.93
2018-07-26T12:27:10.554Z,11.27
2018-07-26T12:29:41.550Z,5.03
2018-07-26T12:32:13.363Z,3.07
2018-07-26T12:34:44.521Z,3.97
2018-07-26T12:37:15.888Z,3.70
2018-07-26T12:39:46.961Z,5.43
2018-07-26T12:42:17.661Z,4.03
2018-07-26T12:44:50.200Z,3.17
2018-07-26T12:47:22.526Z,4.03
2018-07-26T12:49:53.984Z,4.37
2018-07-26T12:52:30.655Z,3.07
2018-07-26T12:55:02.834Z,5.00
2018-07-26T12:57:34.010Z,4.93
2018-07-26T13:00:06.186Z,3.80
2018-07-26T13:02:36.781Z,3.95
2018-07-26T13:05:07.892Z,3.25
2018-07-26T13:07:38.570Z,3.02
2018-07-26T13:10:09.238Z,7.10
2018-07-26T13:12:39.805Z,3.37
2018-07-26T13:15:10.870Z,3.87
2018-07-26T13:17:42.077Z,5.80
2018-07-26T13:20:14.264Z,3.20
2018-07-26T13:22:46.314Z,4.92
2018-07-26T13:25:18.560Z,3.77
2018-07-26T13:27:49.580Z,9.70
2018-07-26T13:30:20.268Z,7.40
2018-07-26T13:32:51.297Z,4.33
2018-07-26T13:35:22.735Z,6.72
2018-07-26T13:37:54.054Z,5.05
2018-07-26T13:40:25.352Z,5.37
2018-07-26T13:42:57.397Z,6.25
2018-07-26T13:45:27.733Z,6.80
2018-07-26T13:47:58.521Z,4.07
2018-07-26T13:50:29.471Z,4.33
2018-07-26T13:53:00.421Z,6.25
2018-07-26T13:55:31.133Z,3.30
2018-07-26T13:58:02.201Z,6.25
2018-07-26T14:00:36.221Z,5.30
2018-07-26T14:03:07.201Z,3.40
2018-07-26T14:05:37.757Z,6.62
2018-07-26T14:08:09.094Z,5.33
2018-07-26T14:10:40.434Z,5.08
2018-07-26T14:13:17.657Z,3.20
2018-07-26T14:15:48.806Z,6.15
2018-07-26T14:18:19.445Z,6.95
2018-07-26T14:20:50.832Z,6.33
2018-07-26T14:23:26.725Z,5.85
2018-07-26T14:25:57.381Z,3.83
2018-07-26T14:28:28.529Z,8.90
2018-07-26T14:31:05.300Z,7.03
2018-07-26T14:33:38.639Z,7.00
2018-07-26T14:36:10.053Z,5.10
2018-07-26T14:38:41.142Z,3.53
2018-07-26T14:41:11.761Z,6.40
2018-07-26T14:43:42.645Z,4.77
2018-07-26T14:46:13.740Z,6.77
2018-07-26T14:48:44.418Z,8.23
2018-07-26T14:51:15.393Z,4.00
2018-07-26T14:53:46.290Z,5.97
2018-07-26T14:56:16.866Z,6.13
2018-07-26T14:58:47.662Z,7.50
2018-07-26T15:01:18.289Z,7.37
2018-07-26T15:03:49.506Z,7.00
2018-07-26T15:06:20.174Z,10.40
2018-07-26T15:08:50.909Z,5.33
2018-07-26T15:11:22.032Z,6.17
2018-07-26T15:13:52.755Z,4.63
2018-07-26T15:16:23.318Z,5.63
2018-07-26T15:18:54.210Z,5.22
2018-07-26T15:21:24.790Z,7.53
2018-07-26T15:23:55.394Z,5.35
2018-07-26T15:26:26.656Z,6.17
2018-07-26T15:28:57.584Z,6.70
2018-07-26T15:31:28.281Z,3.90
2018-07-26T15:33:59.190Z,5.83
2018-07-26T15:36:29.755Z,5.00
2018-07-26T15:39:00.348Z,12.20
2018-07-26T15:41:30.901Z,7.50
2018-07-26T15:44:02.218Z,6.33
2018-07-26T15:46:33.118Z,7.33
2018-07-26T15:49:04.329Z,7.43
2018-07-26T15:51:34.933Z,9.40
2018-07-26T15:54:06.108Z,6.85
2018-07-26T15:56:36.958Z,6.15
2018-07-26T15:59:07.662Z,5.92
2018-07-26T16:01:38.654Z,6.33
2018-07-26T16:04:09.717Z,5.03
2018-07-26T16:06:40.242Z,5.03
2018-07-26T16:09:12.582Z,6.47
2018-07-26T16:11:43.149Z,6.22
2018-07-26T16:14:16.618Z,12.40
2018-07-26T16:16:47.305Z,12.13
2018-07-26T16:19:17.995Z,7.00
2018-07-26T16:21:49.474Z,9.10
2018-07-26T16:24:20.965Z,8.37
2018-07-26T16:26:51.742Z,4.90
2018-07-26T16:29:22.378Z,4.40
2018-07-26T16:31:53.058Z,8.23
2018-07-26T16:34:25.123Z,5.30
2018-07-26T16:36:55.905Z,6.10
2018-07-26T16:39:27.074Z,6.40
2018-07-26T16:41:57.891Z,4.93
2018-07-26T16:44:28.479Z,9.20
2018-07-26T16:47:01.769Z,6.27
2018-07-26T16:49:32.734Z,8.83
2018-07-26T16:52:03.594Z,5.97
2018-07-26T16:54:34.325Z,4.20
2018-07-26T16:57:04.901Z,7.40
2018-07-26T16:59:36.613Z,6.80
2018-07-26T17:02:07.215Z,7.37
2018-07-26T17:04:38.205Z,6.03
2018-07-26T17:07:09.582Z,8.33
2018-07-26T17:09:40.262Z,7.57
2018-07-26T17:12:11.214Z,8.67
2018-07-26T17:14:42.141Z,6.67
2018-07-26T17:17:12.690Z,7.80
2018-07-26T17:19:43.410Z,11.37
2018-07-26T17:22:14.059Z,4.90
2018-07-26T17:24:44.978Z,7.37
2018-07-26T17:27:15.489Z,5.10
2018-07-26T17:29:50.802Z,5.97
2018-07-26T17:39:18.237Z,5.80
2018-07-26T17:41:49.058Z,6.33
2018-07-26T17:44:19.906Z,5.37
2018-07-26T17:46:50.996Z,4.90
2018-07-26T17:49:21.953Z,4.77
2018-07-26T17:51:52.656Z,9.50
2018-07-26T17:54:23.486Z,6.20
2018-07-26T17:56:54.165Z,6.13
2018-07-26T17:59:25.067Z,5.17
2018-07-26T18:01:56.074Z,5.57
2018-07-26T18:04:27.948Z,11.17
2018-07-26T18:06:58.541Z,6.03
2018-07-26T18:09:29.225Z,7.23
2018-07-26T18:12:00.217Z,7.67
2018-07-26T18:14:31.026Z,6.93
2018-07-26T18:17:01.933Z,8.67
2018-07-26T18:19:32.506Z,5.70
2018-07-26T18:22:03.409Z,9.27
2018-07-26T18:24:34.306Z,5.37
2018-07-26T18:27:05.033Z,5.23
2018-07-26T18:29:36.005Z,7.83
2018-07-26T18:32:06.765Z,8.93
2018-07-26T18:34:37.978Z,6.63
2018-07-26T18:37:08.944Z,5.40
2018-07-26T18:39:39.721Z,7.67
2018-07-26T18:42:10.370Z,5.33
2018-07-26T18:44:42.185Z,5.93
2018-07-26T18:47:12.794Z,5.70
2018-07-26T18:49:43.502Z,5.37
2018-07-26T18:52:14.996Z,5.37
2018-07-26T18:54:46.750Z,6.03
2018-07-26T18:57:17.572Z,7.00
2018-07-26T18:59:48.674Z,5.53
2018-07-26T19:02:20.177Z,7.37
2018-07-26T19:04:51.021Z,6.90
2018-07-26T19:07:21.590Z,7.00
2018-07-26T19:09:52.491Z,5.60
2018-07-26T19:12:23.060Z,4.63
2018-07-26T19:14:53.625Z,4.90
2018-07-26T19:17:24.604Z,5.90
2018-07-26T19:19:55.521Z,8.63
2018-07-26T19:22:26.258Z,7.37
2018-07-26T19:24:57.601Z,5.17
2018-07-26T19:27:28.301Z,5.60
2018-07-26T19:29:59.037Z,7.27
2018-07-26T19:32:30.020Z,4.50
2018-07-26T19:35:00.818Z,6.63
2018-07-26T19:37:37.896Z,5.77
2018-07-26T19:40:11.734Z,5.53
2018-07-26T19:42:42.329Z,6.70
2018-07-26T19:45:13.202Z,4.67
2018-07-26T19:47:44.326Z,5.40
2018-07-26T19:50:15.076Z,6.93
2018-07-26T19:52:46.254Z,6.27
2018-07-26T19:55:17.512Z,9.20
2018-07-26T19:57:48.571Z,7.63
2018-07-26T20:00:19.306Z,9.03
2018-07-26T20:02:50.212Z,5.93
2018-07-26T20:05:21.138Z,6.17
2018-07-26T20:07:51.725Z,6.77
2018-07-26T20:10:22.957Z,7.83
2018-07-26T20:12:55.632Z,9.47
2018-07-26T20:15:26.734Z,6.00
2018-07-26T20:17:59.241Z,6.00
2018-07-26T20:20:30.174Z,8.00
2018-07-26T20:23:01.479Z,6.47
2018-07-26T20:25:32.788Z,6.97
2018-07-26T20:28:03.366Z,8.90
2018-07-26T20:30:34.173Z,8.40
2018-07-26T20:33:04.819Z,7.03
2018-07-26T20:35:35.965Z,6.17
2018-07-26T20:38:06.662Z,7.33
2018-07-26T20:40:37.385Z,6.83
2018-07-26T20:43:08.089Z,7.17
2018-07-26T20:45:38.783Z,9.37
2018-07-26T20:48:09.964Z,6.13
2018-07-26T20:50:43.939Z,5.90
2018-07-26T20:53:15.213Z,6.00
2018-07-26T20:55:46.965Z,5.83
2018-07-26T20:58:17.936Z,10.87
2018-07-26T21:00:48.863Z,6.63
2018-07-26T21:03:19.474Z,7.93
2018-07-26T21:05:50.965Z,8.93
2018-07-26T21:08:21.527Z,7.00
2018-07-26T21:10:52.530Z,6.57
2018-07-26T21:13:23.365Z,8.53
2018-07-26T21:15:57.061Z,7.20
2018-07-26T21:18:27.648Z,6.13
2018-07-26T21:20:58.599Z,8.67
2018-07-26T21:23:30.744Z,8.20
2018-07-26T21:26:04.805Z,8.67
2018-07-26T21:28:36.081Z,9.03
2018-07-26T21:31:09.256Z,9.60
2018-07-26T21:33:40.550Z,7.63
2018-07-26T21:36:11.578Z,6.80
2018-07-26T21:38:42.141Z,7.63
2018-07-26T21:41:13.622Z,5.93
2018-07-26T21:43:44.227Z,9.40
2018-07-26T21:46:15.189Z,7.13
2018-07-26T21:48:46.130Z,8.50
2018-07-26T21:51:17.241Z,6.33
2018-07-26T21:53:47.760Z,8.73
2018-07-26T21:56:18.632Z,6.27
2018-07-26T21:58:49.215Z,6.80
2018-07-26T22:01:22.975Z,8.97
2018-07-26T22:03:55.501Z,6.60
2018-07-26T22:06:31.451Z,7.97
2018-07-26T22:09:02.618Z,7.57
2018-07-26T22:11:33.747Z,7.63
2018-07-26T22:14:04.331Z,7.13
2018-07-26T22:16:35.273Z,10.00
2018-07-26T22:19:05.858Z,6.53
2018-07-26T22:21:36.872Z,9.90
2018-07-26T22:24:07.813Z,13.40
2018-07-26T22:26:38.377Z,6.90
2018-07-26T22:29:09.580Z,9.70
2018-07-26T22:31:40.441Z,7.67
2018-07-26T22:34:10.966Z,9.90
2018-07-26T22:36:42.165Z,9.20
2018-07-26T22:39:13.381Z,6.93
2018-07-26T22:41:44.300Z,8.57
2018-07-26T22:44:15.380Z,6.80
2018-07-26T22:46:46.322Z,7.57
2018-07-26T22:49:16.857Z,7.80
2018-07-26T22:51:48.161Z,10.97
2018-07-26T22:54:19.309Z,9.40
2018-07-26T22:56:49.854Z,12.50
2018-07-26T22:59:20.769Z,8.07
2018-07-26T23:01:51.449Z,6.63
2018-07-26T23:04:22.010Z,9.40
2018-07-26T23:06:52.982Z,6.60
2018-07-26T23:09:23.547Z,7.70
2018-07-26T23:11:54.246Z,10.07
2018-07-26T23:14:25.293Z,7.53
2018-07-26T23:16:56.354Z,8.07
2018-07-26T23:19:27.213Z,9.23
2018-07-26T23:21:58.297Z,7.70
2018-07-26T23:24:28.865Z,10.30
2018-07-26T23:26:59.279Z,7.47
2018-07-26T23:29:30.629Z,10.90
2018-07-26T23:32:01.677Z,7.97
2018-07-26T23:34:32.653Z,7.93
2018-07-26T23:37:03.648Z,9.23
2018-07-26T23:39:34.345Z,13.10
2018-07-26T23:42:05.299Z,11.13
2018-07-26T23:44:36.241Z,13.57
2018-07-26T23:47:07.113Z,16.73
2018-07-26T23:49:37.261Z,11.83
2018-07-26T23:52:08.221Z,16.10
2018-07-26T23:54:38.961Z,13.83
2018-07-26T23:57:09.641Z,12.97
2018-07-26T23:59:41.018Z,11.10
